sensor_id;sensor_type;location;lat;lon;timestamp;P1;durP1;ratioP1;P2;durP2;ratioP2
77332;SDS011;66408;51.326;12.070;2023-01-24T00:01:27;28.27;;;10.30;;
77332;SDS011;66408;51.326;12.070;2023-01-24T00:03:53;23.90;;;9.82;;
77332;SDS011;66408;51.326;12.070;2023-01-24T00:06:20;22.25;;;8.63;;
77332;SDS011;66408;51.326;12.070;2023-01-24T00:08:47;24.77;;;9.95;;
77332;SDS011;66408;51.326;12.070;2023-01-24T00:11:13;26.85;;;9.68;;
77332;SDS011;66408;51.326;12.070;2023-01-24T00:13:40;24.95;;;9.63;;
77332;SDS011;66408;51.326;12.070;2023-01-24T00:16:14;23.98;;;10.15;;
77332;SDS011;66408;51.326;12.070;2023-01-24T00:18:42;24.00;;;9.43;;
77332;SDS011;66408;51.326;12.070;2023-01-24T00:21:10;22.33;;;9.68;;
77332;SDS011;66408;51.326;12.070;2023-01-24T00:23:42;21.08;;;8.57;;
77332;SDS011;66408;51.326;12.070;2023-01-24T00:26:11;24.63;;;9.80;;
77332;SDS011;66408;51.326;12.070;2023-01-24T00:28:38;22.50;;;9.50;;
77332;SDS011;66408;51.326;12.070;2023-01-24T00:31:05;23.23;;;9.90;;
77332;SDS011;66408;51.326;12.070;2023-01-24T00:33:32;22.17;;;8.93;;
77332;SDS011;66408;51.326;12.070;2023-01-24T00:35:59;24.92;;;9.55;;
77332;SDS011;66408;51.326;12.070;2023-01-24T00:38:27;25.48;;;10.23;;
77332;SDS011;66408;51.326;12.070;2023-01-24T00:40:54;24.15;;;9.23;;
77332;SDS011;66408;51.326;12.070;2023-01-24T00:43:20;23.63;;;9.07;;
77332;SDS011;66408;51.326;12.070;2023-01-24T00:45:47;20.15;;;8.80;;
77332;SDS011;66408;51.326;12.070;2023-01-24T00:48:13;23.40;;;9.95;;
77332;SDS011;66408;51.326;12.070;2023-01-24T00:50:40;22.10;;;8.52;;
77332;SDS011;66408;51.326;12.070;2023-01-24T00:53:07;20.63;;;8.50;;
77332;SDS011;66408;51.326;12.070;2023-01-24T00:55:33;21.63;;;8.13;;
77332;SDS011;66408;51.326;12.070;2023-01-24T00:58:00;22.65;;;9.57;;
77332;SDS011;66408;51.326;12.070;2023-01-24T01:00:26;19.27;;;8.32;;
77332;SDS011;66408;51.326;12.070;2023-01-24T01:02:53;22.17;;;9.52;;
77332;SDS011;66408;51.326;12.070;2023-01-24T01:05:19;20.08;;;8.63;;
77332;SDS011;66408;51.326;12.070;2023-01-24T01:07:46;20.98;;;9.10;;
77332;SDS011;66408;51.326;12.070;2023-01-24T01:10:13;19.92;;;8.18;;
77332;SDS011;66408;51.326;12.070;2023-01-24T01:12:40;23.30;;;8.77;;
77332;SDS011;66408;51.326;12.070;2023-01-24T01:15:06;23.33;;;9.35;;
77332;SDS011;66408;51.326;12.070;2023-01-24T01:17:33;22.70;;;8.85;;
77332;SDS011;66408;51.326;12.070;2023-01-24T01:20:00;23.65;;;9.43;;
77332;SDS011;66408;51.326;12.070;2023-01-24T01:22:26;23.33;;;8.73;;
77332;SDS011;66408;51.326;12.070;2023-01-24T01:24:52;17.67;;;8.57;;
77332;SDS011;66408;51.326;12.070;2023-01-24T01:27:19;23.65;;;9.02;;
77332;SDS011;66408;51.326;12.070;2023-01-24T01:29:45;19.60;;;8.27;;
77332;SDS011;66408;51.326;12.070;2023-01-24T01:32:12;23.67;;;9.07;;
77332;SDS011;66408;51.326;12.070;2023-01-24T01:34:38;22.95;;;8.43;;
77332;SDS011;66408;51.326;12.070;2023-01-24T01:37:05;20.55;;;9.68;;
77332;SDS011;66408;51.326;12.070;2023-01-24T01:39:31;21.40;;;9.25;;
77332;SDS011;66408;51.326;12.070;2023-01-24T01:41:57;19.67;;;8.07;;
77332;SDS011;66408;51.326;12.070;2023-01-24T01:44:25;20.40;;;7.85;;
77332;SDS011;66408;51.326;12.070;2023-01-24T01:52:50;21.80;;;8.35;;
77332;SDS011;66408;51.326;12.070;2023-01-24T01:55:18;21.63;;;8.65;;
77332;SDS011;66408;51.326;12.070;2023-01-24T01:57:47;25.05;;;9.15;;
77332;SDS011;66408;51.326;12.070;2023-01-24T02:00:18;23.27;;;9.52;;
77332;SDS011;66408;51.326;12.070;2023-01-24T02:02:51;19.92;;;8.85;;
77332;SDS011;66408;51.326;12.070;2023-01-24T02:05:22;18.17;;;8.00;;
77332;SDS011;66408;51.326;12.070;2023-01-24T02:07:52;25.77;;;9.55;;
77332;SDS011;66408;51.326;12.070;2023-01-24T02:10:24;18.75;;;7.75;;
77332;SDS011;66408;51.326;12.070;2023-01-24T02:13:12;20.13;;;7.75;;
77332;SDS011;66408;51.326;12.070;2023-01-24T02:15:39;21.67;;;8.70;;
77332;SDS011;66408;51.326;12.070;2023-01-24T02:18:25;20.35;;;8.63;;
77332;SDS011;66408;51.326;12.070;2023-01-24T02:20:52;20.00;;;9.48;;
77332;SDS011;66408;51.326;12.070;2023-01-24T02:23:31;20.60;;;7.88;;
77332;SDS011;66408;51.326;12.070;2023-01-24T02:26:22;22.65;;;9.13;;
77332;SDS011;66408;51.326;12.070;2023-01-24T02:29:07;20.05;;;9.15;;
77332;SDS011;66408;51.326;12.070;2023-01-24T02:34:24;22.77;;;8.75;;
77332;SDS011;66408;51.326;12.070;2023-01-24T02:36:55;22.38;;;8.45;;
77332;SDS011;66408;51.326;12.070;2023-01-24T02:39:32;22.45;;;9.80;;
77332;SDS011;66408;51.326;12.070;2023-01-24T02:42:05;19.38;;;8.15;;
77332;SDS011;66408;51.326;12.070;2023-01-24T02:47:13;18.77;;;7.88;;
77332;SDS011;66408;51.326;12.070;2023-01-24T02:49:39;21.42;;;8.40;;
77332;SDS011;66408;51.326;12.070;2023-01-24T02:52:07;19.38;;;8.38;;
77332;SDS011;66408;51.326;12.070;2023-01-24T02:54:52;18.83;;;8.10;;
77332;SDS011;66408;51.326;12.070;2023-01-24T02:57:19;19.08;;;8.43;;
77332;SDS011;66408;51.326;12.070;2023-01-24T03:00:06;19.58;;;8.40;;
77332;SDS011;66408;51.326;12.070;2023-01-24T03:02:33;24.75;;;8.93;;
77332;SDS011;66408;51.326;12.070;2023-01-24T03:05:00;18.92;;;8.27;;
77332;SDS011;66408;51.326;12.070;2023-01-24T03:07:26;22.55;;;8.68;;
77332;SDS011;66408;51.326;12.070;2023-01-24T03:09:53;21.25;;;8.57;;
77332;SDS011;66408;51.326;12.070;2023-01-24T03:12:19;22.45;;;8.02;;
77332;SDS011;66408;51.326;12.070;2023-01-24T03:15:04;21.15;;;8.88;;
77332;SDS011;66408;51.326;12.070;2023-01-24T03:17:50;20.88;;;7.95;;
77332;SDS011;66408;51.326;12.070;2023-01-24T03:20:34;19.30;;;8.35;;
77332;SDS011;66408;51.326;12.070;2023-01-24T03:23:19;19.33;;;7.88;;
77332;SDS011;66408;51.326;12.070;2023-01-24T03:26:04;19.45;;;8.38;;
77332;SDS011;66408;51.326;12.070;2023-01-24T03:28:49;19.55;;;8.30;;
77332;SDS011;66408;51.326;12.070;2023-01-24T03:31:33;18.83;;;8.27;;
77332;SDS011;66408;51.326;12.070;2023-01-24T03:34:19;18.75;;;7.90;;
77332;SDS011;66408;51.326;12.070;2023-01-24T03:37:12;19.85;;;8.30;;
77332;SDS011;66408;51.326;12.070;2023-01-24T03:39:39;19.58;;;8.00;;
77332;SDS011;66408;51.326;12.070;2023-01-24T03:42:25;20.50;;;7.97;;
77332;SDS011;66408;51.326;12.070;2023-01-24T03:44:52;19.60;;;8.52;;
77332;SDS011;66408;51.326;12.070;2023-01-24T03:47:19;18.73;;;8.23;;
77332;SDS011;66408;51.326;12.070;2023-01-24T03:49:46;20.08;;;8.85;;
77332;SDS011;66408;51.326;12.070;2023-01-24T03:52:30;21.55;;;8.95;;
77332;SDS011;66408;51.326;12.070;2023-01-24T03:54:58;17.55;;;7.82;;
77332;SDS011;66408;51.326;12.070;2023-01-24T03:57:26;21.40;;;8.88;;
77332;SDS011;66408;51.326;12.070;2023-01-24T03:59:54;17.90;;;8.35;;
77332;SDS011;66408;51.326;12.070;2023-01-24T04:02:21;18.02;;;7.93;;
77332;SDS011;66408;51.326;12.070;2023-01-24T04:04:47;21.92;;;8.80;;
77332;SDS011;66408;51.326;12.070;2023-01-24T04:07:32;21.38;;;7.82;;
77332;SDS011;66408;51.326;12.070;2023-01-24T04:09:59;19.50;;;7.82;;
77332;SDS011;66408;51.326;12.070;2023-01-24T04:12:25;20.83;;;8.23;;
77332;SDS011;66408;51.326;12.070;2023-01-24T04:14:52;22.52;;;9.63;;
77332;SDS011;66408;51.326;12.070;2023-01-24T04:17:19;20.27;;;8.30;;
77332;SDS011;66408;51.326;12.070;2023-01-24T04:19:45;22.92;;;8.27;;
77332;SDS011;66408;51.326;12.070;2023-01-24T04:22:12;20.27;;;8.52;;
77332;SDS011;66408;51.326;12.070;2023-01-24T04:24:41;18.20;;;7.93;;
77332;SDS011;66408;51.326;12.070;2023-01-24T04:27:09;20.40;;;8.02;;
77332;SDS011;66408;51.326;12.070;2023-01-24T04:29:36;19.30;;;8.30;;
77332;SDS011;66408;51.326;12.070;2023-01-24T04:32:02;16.42;;;6.97;;
77332;SDS011;66408;51.326;12.070;2023-01-24T04:34:29;19.30;;;8.00;;
77332;SDS011;66408;51.326;12.070;2023-01-24T04:36:55;20.30;;;8.25;;
77332;SDS011;66408;51.326;12.070;2023-01-24T04:39:22;19.02;;;7.90;;
77332;SDS011;66408;51.326;12.070;2023-01-24T04:41:48;20.15;;;7.47;;
77332;SDS011;66408;51.326;12.070;2023-01-24T04:44:15;18.02;;;7.53;;
77332;SDS011;66408;51.326;12.070;2023-01-24T04:46:41;18.92;;;7.45;;
77332;SDS011;66408;51.326;12.070;2023-01-24T04:49:07;20.05;;;7.50;;
77332;SDS011;66408;51.326;12.070;2023-01-24T04:51:34;15.45;;;7.20;;
77332;SDS011;66408;51.326;12.070;2023-01-24T04:54:00;17.40;;;7.68;;
77332;SDS011;66408;51.326;12.070;2023-01-24T04:56:27;17.48;;;7.53;;
77332;SDS011;66408;51.326;12.070;2023-01-24T04:58:53;17.10;;;7.53;;
77332;SDS011;66408;51.326;12.070;2023-01-24T05:01:20;18.98;;;8.63;;
77332;SDS011;66408;51.326;12.070;2023-01-24T05:03:46;19.40;;;8.93;;
77332;SDS011;66408;51.326;12.070;2023-01-24T05:06:12;18.77;;;7.95;;
77332;SDS011;66408;51.326;12.070;2023-01-24T05:08:39;20.00;;;8.23;;
77332;SDS011;66408;51.326;12.070;2023-01-24T05:11:05;18.65;;;8.30;;
77332;SDS011;66408;51.326;12.070;2023-01-24T05:13:32;18.05;;;8.27;;
77332;SDS011;66408;51.326;12.070;2023-01-24T05:15:58;17.50;;;6.85;;
77332;SDS011;66408;51.326;12.070;2023-01-24T05:18:24;17.00;;;7.75;;
77332;SDS011;66408;51.326;12.070;2023-01-24T05:20:51;17.23;;;7.38;;
77332;SDS011;66408;51.326;12.070;2023-01-24T05:23:17;17.58;;;8.45;;
77332;SDS011;66408;51.326;12.070;2023-01-24T05:25:44;21.42;;;8.60;;
77332;SDS011;66408;51.326;12.070;2023-01-24T05:28:10;18.15;;;8.50;;
77332;SDS011;66408;51.326;12.070;2023-01-24T05:30:36;18.67;;;8.20;;
77332;SDS011;66408;51.326;12.070;2023-01-24T05:33:03;17.77;;;7.53;;
77332;SDS011;66408;51.326;12.070;2023-01-24T05:35:30;18.83;;;7.55;;
77332;SDS011;66408;51.326;12.070;2023-01-24T05:37:56;18.65;;;8.18;;
77332;SDS011;66408;51.326;12.070;2023-01-24T05:40:23;17.05;;;7.13;;
77332;SDS011;66408;51.326;12.070;2023-01-24T05:42:49;16.77;;;7.38;;
77332;SDS011;66408;51.326;12.070;2023-01-24T05:45:16;21.05;;;8.23;;
77332;SDS011;66408;51.326;12.070;2023-01-24T05:47:42;19.15;;;7.43;;
77332;SDS011;66408;51.326;12.070;2023-01-24T05:50:09;16.65;;;7.32;;
77332;SDS011;66408;51.326;12.070;2023-01-24T05:52:36;17.15;;;6.97;;
77332;SDS011;66408;51.326;12.070;2023-01-24T05:55:02;16.63;;;6.93;;
77332;SDS011;66408;51.326;12.070;2023-01-24T05:57:29;21.50;;;8.75;;
77332;SDS011;66408;51.326;12.070;2023-01-24T05:59:56;19.48;;;8.07;;
77332;SDS011;66408;51.326;12.070;2023-01-24T06:02:22;20.88;;;7.07;;
77332;SDS011;66408;51.326;12.070;2023-01-24T06:04:49;19.58;;;7.82;;
77332;SDS011;66408;51.326;12.070;2023-01-24T06:07:15;17.17;;;7.72;;
77332;SDS011;66408;51.326;12.070;2023-01-24T06:09:42;20.38;;;7.38;;
77332;SDS011;66408;51.326;12.070;2023-01-24T06:12:08;15.40;;;6.47;;
77332;SDS011;66408;51.326;12.070;2023-01-24T06:14:34;17.38;;;7.43;;
77332;SDS011;66408;51.326;12.070;2023-01-24T06:17:01;19.33;;;7.93;;
77332;SDS011;66408;51.326;12.070;2023-01-24T06:19:27;16.67;;;7.03;;
77332;SDS011;66408;51.326;12.070;2023-01-24T06:22:08;16.80;;;6.70;;
77332;SDS011;66408;51.326;12.070;2023-01-24T06:24:50;17.60;;;7.68;;
77332;SDS011;66408;51.326;12.070;2023-01-24T06:27:16;17.83;;;7.20;;
77332;SDS011;66408;51.326;12.070;2023-01-24T06:29:43;15.93;;;6.72;;
77332;SDS011;66408;51.326;12.070;2023-01-24T06:40:15;18.05;;;7.18;;
77332;SDS011;66408;51.326;12.070;2023-01-24T06:42:44;18.42;;;6.50;;
77332;SDS011;66408;51.326;12.070;2023-01-24T06:45:11;15.40;;;6.97;;
77332;SDS011;66408;51.326;12.070;2023-01-24T06:47:39;18.25;;;7.28;;
77332;SDS011;66408;51.326;12.070;2023-01-24T06:50:06;19.63;;;8.38;;
77332;SDS011;66408;51.326;12.070;2023-01-24T06:52:34;18.42;;;7.57;;
77332;SDS011;66408;51.326;12.070;2023-01-24T06:55:01;16.63;;;6.90;;
77332;SDS011;66408;51.326;12.070;2023-01-24T06:57:27;19.10;;;8.40;;
77332;SDS011;66408;51.326;12.070;2023-01-24T06:59:54;23.05;;;7.80;;
77332;SDS011;66408;51.326;12.070;2023-01-24T07:02:20;17.73;;;8.00;;
77332;SDS011;66408;51.326;12.070;2023-01-24T07:04:47;19.67;;;8.93;;
77332;SDS011;66408;51.326;12.070;2023-01-24T07:07:13;21.92;;;7.47;;
77332;SDS011;66408;51.326;12.070;2023-01-24T07:09:39;14.95;;;7.00;;
77332;SDS011;66408;51.326;12.070;2023-01-24T07:12:07;18.60;;;8.10;;
77332;SDS011;66408;51.326;12.070;2023-01-24T07:14:33;16.55;;;7.53;;
77332;SDS011;66408;51.326;12.070;2023-01-24T07:16:59;22.60;;;9.60;;
77332;SDS011;66408;51.326;12.070;2023-01-24T07:19:26;20.60;;;9.98;;
77332;SDS011;66408;51.326;12.070;2023-01-24T07:21:53;21.00;;;9.15;;
77332;SDS011;66408;51.326;12.070;2023-01-24T07:26:51;24.88;;;8.85;;
77332;SDS011;66408;51.326;12.070;2023-01-24T07:29:18;19.85;;;7.80;;
77332;SDS011;66408;51.326;12.070;2023-01-24T07:31:45;19.67;;;8.43;;
77332;SDS011;66408;51.326;12.070;2023-01-24T07:34:17;21.85;;;8.75;;
77332;SDS011;66408;51.326;12.070;2023-01-24T07:39:00;22.00;;;8.48;;
77332;SDS011;66408;51.326;12.070;2023-01-24T07:41:27;22.42;;;10.25;;
77332;SDS011;66408;51.326;12.070;2023-01-24T07:43:53;19.85;;;8.85;;
77332;SDS011;66408;51.326;12.070;2023-01-24T07:46:21;18.63;;;9.05;;
77332;SDS011;66408;51.326;12.070;2023-01-24T07:48:47;19.23;;;8.43;;
77332;SDS011;66408;51.326;12.070;2023-01-24T07:51:13;21.23;;;8.57;;
77332;SDS011;66408;51.326;12.070;2023-01-24T07:53:40;19.60;;;8.15;;
77332;SDS011;66408;51.326;12.070;2023-01-24T07:56:06;20.77;;;8.27;;
77332;SDS011;66408;51.326;12.070;2023-01-24T07:58:39;22.80;;;8.95;;
77332;SDS011;66408;51.326;12.070;2023-01-24T08:01:06;19.75;;;8.43;;
77332;SDS011;66408;51.326;12.070;2023-01-24T08:03:35;20.23;;;9.00;;
77332;SDS011;66408;51.326;12.070;2023-01-24T08:06:03;18.20;;;8.55;;
77332;SDS011;66408;51.326;12.070;2023-01-24T08:08:30;18.13;;;7.85;;
77332;SDS011;66408;51.326;12.070;2023-01-24T08:10:56;18.05;;;7.28;;
77332;SDS011;66408;51.326;12.070;2023-01-24T08:13:23;19.58;;;8.30;;
77332;SDS011;66408;51.326;12.070;2023-01-24T08:15:49;20.08;;;7.82;;
77332;SDS011;66408;51.326;12.070;2023-01-24T08:18:15;17.27;;;7.80;;
77332;SDS011;66408;51.326;12.070;2023-01-24T08:20:43;17.77;;;7.65;;
77332;SDS011;66408;51.326;12.070;2023-01-24T08:23:10;21.60;;;8.20;;
77332;SDS011;66408;51.326;12.070;2023-01-24T08:25:36;18.40;;;7.20;;
77332;SDS011;66408;51.326;12.070;2023-01-24T08:28:03;19.05;;;7.65;;
77332;SDS011;66408;51.326;12.070;2023-01-24T08:30:29;22.23;;;7.40;;
77332;SDS011;66408;51.326;12.070;2023-01-24T08:33:02;15.27;;;7.45;;
77332;SDS011;66408;51.326;12.070;2023-01-24T08:35:30;18.15;;;7.53;;
77332;SDS011;66408;51.326;12.070;2023-01-24T08:37:58;15.25;;;6.57;;
77332;SDS011;66408;51.326;12.070;2023-01-24T08:40:25;18.02;;;7.35;;
77332;SDS011;66408;51.326;12.070;2023-01-24T08:42:53;14.93;;;7.03;;
77332;SDS011;66408;51.326;12.070;2023-01-24T08:45:20;19.30;;;6.97;;
77332;SDS011;66408;51.326;12.070;2023-01-24T08:47:50;14.55;;;5.72;;
77332;SDS011;66408;51.326;12.070;2023-01-24T08:50:17;21.25;;;7.28;;
77332;SDS011;66408;51.326;12.070;2023-01-24T08:52:46;18.30;;;7.45;;
77332;SDS011;66408;51.326;12.070;2023-01-24T08:55:13;16.65;;;7.03;;
77332;SDS011;66408;51.326;12.070;2023-01-24T08:57:40;19.45;;;7.20;;
77332;SDS011;66408;51.326;12.070;2023-01-24T09:00:07;15.68;;;6.78;;
77332;SDS011;66408;51.326;12.070;2023-01-24T09:02:34;16.75;;;7.20;;
77332;SDS011;66408;51.326;12.070;2023-01-24T09:05:07;15.80;;;6.47;;
77332;SDS011;66408;51.326;12.070;2023-01-24T09:07:34;16.48;;;7.10;;
77332;SDS011;66408;51.326;12.070;2023-01-24T09:10:03;15.80;;;6.57;;
77332;SDS011;66408;51.326;12.070;2023-01-24T09:12:30;17.73;;;6.97;;
77332;SDS011;66408;51.326;12.070;2023-01-24T09:14:57;23.10;;;7.75;;
77332;SDS011;66408;51.326;12.070;2023-01-24T09:17:24;19.98;;;7.68;;
77332;SDS011;66408;51.326;12.070;2023-01-24T09:19:51;18.52;;;6.95;;
77332;SDS011;66408;51.326;12.070;2023-01-24T09:22:17;16.17;;;6.60;;
77332;SDS011;66408;51.326;12.070;2023-01-24T09:24:46;19.90;;;6.43;;
77332;SDS011;66408;51.326;12.070;2023-01-24T09:27:12;16.20;;;6.20;;
77332;SDS011;66408;51.326;12.070;2023-01-24T09:29:38;15.25;;;6.32;;
77332;SDS011;66408;51.326;12.070;2023-01-24T09:32:05;18.80;;;6.75;;
77332;SDS011;66408;51.326;12.070;2023-01-24T09:34:31;19.13;;;7.00;;
77332;SDS011;66408;51.326;12.070;2023-01-24T09:36:58;17.63;;;6.60;;
77332;SDS011;66408;51.326;12.070;2023-01-24T09:39:24;17.05;;;6.78;;
77332;SDS011;66408;51.326;12.070;2023-01-24T09:41:53;16.63;;;5.78;;
77332;SDS011;66408;51.326;12.070;2023-01-24T09:47:50;16.80;;;6.82;;
77332;SDS011;66408;51.326;12.070;2023-01-24T09:50:27;18.48;;;6.75;;
77332;SDS011;66408;51.326;12.070;2023-01-24T09:53:00;19.13;;;6.65;;
77332;SDS011;66408;51.326;12.070;2023-01-24T09:55:31;17.30;;;7.07;;
77332;SDS011;66408;51.326;12.070;2023-01-24T09:58:06;18.83;;;7.13;;
77332;SDS011;66408;51.326;12.070;2023-01-24T10:00:44;20.25;;;7.07;;
77332;SDS011;66408;51.326;12.070;2023-01-24T10:03:14;18.63;;;7.53;;
77332;SDS011;66408;51.326;12.070;2023-01-24T10:05:55;18.23;;;7.32;;
77332;SDS011;66408;51.326;12.070;2023-01-24T10:10:54;18.05;;;6.82;;
77332;SDS011;66408;51.326;12.070;2023-01-24T10:22:16;18.30;;;7.28;;
77332;SDS011;66408;51.326;12.070;2023-01-24T10:25:00;17.83;;;6.72;;
77332;SDS011;66408;51.326;12.070;2023-01-24T10:27:32;22.27;;;7.35;;
77332;SDS011;66408;51.326;12.070;2023-01-24T10:30:12;23.20;;;8.10;;
77332;SDS011;66408;51.326;12.070;2023-01-24T10:32:39;20.83;;;7.25;;
77332;SDS011;66408;51.326;12.070;2023-01-24T10:35:14;24.15;;;8.75;;
77332;SDS011;66408;51.326;12.070;2023-01-24T10:37:55;14.48;;;7.20;;
77332;SDS011;66408;51.326;12.070;2023-01-24T10:40:24;22.73;;;7.25;;
77332;SDS011;66408;51.326;12.070;2023-01-24T10:42:51;19.25;;;7.68;;
77332;SDS011;66408;51.326;12.070;2023-01-24T10:48:17;19.45;;;7.90;;
77332;SDS011;66408;51.326;12.070;2023-01-24T10:50:49;20.40;;;7.05;;
77332;SDS011;66408;51.326;12.070;2023-01-24T10:53:25;15.98;;;6.90;;
77332;SDS011;66408;51.326;12.070;2023-01-24T10:55:57;21.90;;;8.07;;
77332;SDS011;66408;51.326;12.070;2023-01-24T10:58:40;17.77;;;7.13;;
77332;SDS011;66408;51.326;12.070;2023-01-24T11:01:21;20.35;;;7.68;;
77332;SDS011;66408;51.326;12.070;2023-01-24T11:03:58;17.08;;;7.60;;
77332;SDS011;66408;51.326;12.070;2023-01-24T11:06:33;20.80;;;7.70;;
77332;SDS011;66408;51.326;12.070;2023-01-24T11:09:04;19.45;;;7.60;;
77332;SDS011;66408;51.326;12.070;2023-01-24T11:11:41;22.20;;;8.75;;
77332;SDS011;66408;51.326;12.070;2023-01-24T11:14:16;20.23;;;7.60;;
77332;SDS011;66408;51.326;12.070;2023-01-24T11:16:46;21.30;;;7.40;;
77332;SDS011;66408;51.326;12.070;2023-01-24T11:19:22;19.38;;;8.38;;
77332;SDS011;66408;51.326;12.070;2023-01-24T11:21:57;22.65;;;7.95;;
77332;SDS011;66408;51.326;12.070;2023-01-24T11:24:25;20.02;;;7.47;;
77332;SDS011;66408;51.326;12.070;2023-01-24T11:26:57;20.00;;;8.02;;
77332;SDS011;66408;51.326;12.070;2023-01-24T11:29:24;18.00;;;7.78;;
77332;SDS011;66408;51.326;12.070;2023-01-24T11:31:52;20.20;;;7.90;;
77332;SDS011;66408;51.326;12.070;2023-01-24T11:37:32;20.30;;;7.97;;
77332;SDS011;66408;51.326;12.070;2023-01-24T11:42:38;20.70;;;7.55;;
77332;SDS011;66408;51.326;12.070;2023-01-24T11:48:42;24.90;;;8.98;;
77332;SDS011;66408;51.326;12.070;2023-01-24T11:54:26;21.38;;;7.82;;
77332;SDS011;66408;51.326;12.070;2023-01-24T11:57:26;19.73;;;8.02;;
77332;SDS011;66408;51.326;12.070;2023-01-24T11:59:57;18.23;;;7.07;;
77332;SDS011;66408;51.326;12.070;2023-01-24T12:05:39;18.75;;;7.85;;
77332;SDS011;66408;51.326;12.070;2023-01-24T12:08:17;19.73;;;7.35;;
77332;SDS011;66408;51.326;12.070;2023-01-24T12:14:05;19.42;;;7.93;;
77332;SDS011;66408;51.326;12.070;2023-01-24T12:22:22;19.85;;;7.03;;
77332;SDS011;66408;51.326;12.070;2023-01-24T12:25:15;20.48;;;8.60;;
77332;SDS011;66408;51.326;12.070;2023-01-24T12:27:49;20.90;;;7.90;;
77332;SDS011;66408;51.326;12.070;2023-01-24T12:30:27;20.40;;;8.13;;
77332;SDS011;66408;51.326;12.070;2023-01-24T12:33:01;22.50;;;8.30;;
77332;SDS011;66408;51.326;12.070;2023-01-24T12:35:36;21.27;;;9.05;;
77332;SDS011;66408;51.326;12.070;2023-01-24T12:38:18;21.10;;;9.00;;
77332;SDS011;66408;51.326;12.070;2023-01-24T12:53:21;21.65;;;8.80;;
77332;SDS011;66408;51.326;12.070;2023-01-24T12:55:24;23.70;;;8.85;;
77332;SDS011;66408;51.326;12.070;2023-01-24T12:58:10;21.48;;;8.55;;
77332;SDS011;66408;51.326;12.070;2023-01-24T13:01:30;21.92;;;8.85;;
77332;SDS011;66408;51.326;12.070;2023-01-24T13:03:53;21.83;;;7.90;;
77332;SDS011;66408;51.326;12.070;2023-01-24T13:14:27;22.92;;;7.65;;
77332;SDS011;66408;51.326;12.070;2023-01-24T13:19:38;18.83;;;7.78;;
77332;SDS011;66408;51.326;12.070;2023-01-24T13:22:12;20.25;;;8.18;;
77332;SDS011;66408;51.326;12.070;2023-01-24T13:32:37;18.80;;;7.57;;
77332;SDS011;66408;51.326;12.070;2023-01-24T13:37:48;17.65;;;7.28;;
77332;SDS011;66408;51.326;12.070;2023-01-24T13:40:19;23.80;;;9.10;;
77332;SDS011;66408;51.326;12.070;2023-01-24T13:42:49;16.85;;;7.15;;
77332;SDS011;66408;51.326;12.070;2023-01-24T13:47:52;21.67;;;8.30;;
77332;SDS011;66408;51.326;12.070;2023-01-24T13:50:20;18.75;;;7.68;;
77332;SDS011;66408;51.326;12.070;2023-01-24T13:52:52;19.65;;;7.47;;
77332;SDS011;66408;51.326;12.070;2023-01-24T14:00:34;21.08;;;8.00;;
77332;SDS011;66408;51.326;12.070;2023-01-24T14:16:12;20.10;;;8.32;;
77332;SDS011;66408;51.326;12.070;2023-01-24T14:18:51;22.65;;;9.23;;
77332;SDS011;66408;51.326;12.070;2023-01-24T14:21:33;21.30;;;8.95;;
77332;SDS011;66408;51.326;12.070;2023-01-24T14:26:52;23.88;;;8.52;;
77332;SDS011;66408;51.326;12.070;2023-01-24T14:29:20;19.88;;;8.32;;
77332;SDS011;66408;51.326;12.070;2023-01-24T14:31:52;25.30;;;9.18;;
77332;SDS011;66408;51.326;12.070;2023-01-24T14:37:07;25.13;;;9.38;;
77332;SDS011;66408;51.326;12.070;2023-01-24T14:39:35;22.67;;;8.27;;
77332;SDS011;66408;51.326;12.070;2023-01-24T14:42:03;20.48;;;8.27;;
77332;SDS011;66408;51.326;12.070;2023-01-24T14:44:33;18.30;;;8.00;;
77332;SDS011;66408;51.326;12.070;2023-01-24T14:49:33;20.15;;;7.40;;
77332;SDS011;66408;51.326;12.070;2023-01-24T14:52:12;21.20;;;7.63;;
77332;SDS011;66408;51.326;12.070;2023-01-24T14:54:51;17.98;;;7.25;;
77332;SDS011;66408;51.326;12.070;2023-01-24T15:02:39;19.55;;;8.50;;
77332;SDS011;66408;51.326;12.070;2023-01-24T15:07:57;16.98;;;7.15;;
77332;SDS011;66408;51.326;12.070;2023-01-24T15:10:30;15.85;;;6.60;;
77332;SDS011;66408;51.326;12.070;2023-01-24T15:13:01;20.25;;;8.05;;
77332;SDS011;66408;51.326;12.070;2023-01-24T15:15:30;25.25;;;7.82;;
77332;SDS011;66408;51.326;12.070;2023-01-24T15:18:01;18.75;;;8.27;;
77332;SDS011;66408;51.326;12.070;2023-01-24T15:20:30;18.10;;;6.75;;
77332;SDS011;66408;51.326;12.070;2023-01-24T15:22:59;20.58;;;6.95;;
77332;SDS011;66408;51.326;12.070;2023-01-24T15:25:29;17.00;;;6.97;;
77332;SDS011;66408;51.326;12.070;2023-01-24T15:28:16;15.95;;;6.57;;
77332;SDS011;66408;51.326;12.070;2023-01-24T15:30:55;16.88;;;6.78;;
77332;SDS011;66408;51.326;12.070;2023-01-24T15:33:40;21.00;;;7.70;;
77332;SDS011;66408;51.326;12.070;2023-01-24T15:36:21;15.85;;;6.57;;
77332;SDS011;66408;51.326;12.070;2023-01-24T15:39:10;17.27;;;6.55;;
77332;SDS011;66408;51.326;12.070;2023-01-24T15:41:39;17.45;;;6.70;;
77332;SDS011;66408;51.326;12.070;2023-01-24T15:44:25;15.13;;;6.90;;
77332;SDS011;66408;51.326;12.070;2023-01-24T15:46:55;17.05;;;6.95;;
77332;SDS011;66408;51.326;12.070;2023-01-24T15:49:57;18.85;;;7.15;;
77332;SDS011;66408;51.326;12.070;2023-01-24T15:52:26;17.17;;;7.40;;
77332;SDS011;66408;51.326;12.070;2023-01-24T15:54:54;17.58;;;6.53;;
77332;SDS011;66408;51.326;12.070;2023-01-24T15:57:25;17.55;;;7.80;;
77332;SDS011;66408;51.326;12.070;2023-01-24T16:00:21;18.75;;;7.80;;
77332;SDS011;66408;51.326;12.070;2023-01-24T16:02:49;19.13;;;7.55;;
77332;SDS011;66408;51.326;12.070;2023-01-24T16:05:16;18.38;;;8.10;;
77332;SDS011;66408;51.326;12.070;2023-01-24T16:07:45;20.35;;;8.73;;
77332;SDS011;66408;51.326;12.070;2023-01-24T16:10:12;18.23;;;7.60;;
77332;SDS011;66408;51.326;12.070;2023-01-24T16:12:39;21.67;;;7.07;;
77332;SDS011;66408;51.326;12.070;2023-01-24T16:15:06;19.65;;;7.85;;
77332;SDS011;66408;51.326;12.070;2023-01-24T16:17:38;18.38;;;7.32;;
77332;SDS011;66408;51.326;12.070;2023-01-24T16:20:10;18.92;;;7.20;;
77332;SDS011;66408;51.326;12.070;2023-01-24T16:22:42;17.42;;;7.97;;
77332;SDS011;66408;51.326;12.070;2023-01-24T16:25:12;19.23;;;8.63;;
77332;SDS011;66408;51.326;12.070;2023-01-24T16:27:39;20.77;;;8.20;;
77332;SDS011;66408;51.326;12.070;2023-01-24T16:30:13;19.88;;;7.07;;
77332;SDS011;66408;51.326;12.070;2023-01-24T16:32:43;20.75;;;8.25;;
77332;SDS011;66408;51.326;12.070;2023-01-24T16:35:09;20.33;;;7.75;;
77332;SDS011;66408;51.326;12.070;2023-01-24T16:37:36;21.65;;;8.32;;
77332;SDS011;66408;51.326;12.070;2023-01-24T16:40:02;18.52;;;6.80;;
77332;SDS011;66408;51.326;12.070;2023-01-24T16:42:30;19.55;;;8.15;;
77332;SDS011;66408;51.326;12.070;2023-01-24T16:44:58;19.98;;;7.10;;
77332;SDS011;66408;51.326;12.070;2023-01-24T16:47:26;20.33;;;8.40;;
77332;SDS011;66408;51.326;12.070;2023-01-24T16:49:54;18.17;;;7.75;;
77332;SDS011;66408;51.326;12.070;2023-01-24T16:52:22;21.17;;;8.50;;
77332;SDS011;66408;51.326;12.070;2023-01-24T16:54:50;20.13;;;7.25;;
77332;SDS011;66408;51.326;12.070;2023-01-24T16:57:17;20.52;;;8.25;;